createdAt,value
2023-11-12T00:02:09.920Z,100.00
2023-11-12T00:04:37.643Z,100.00
2023-11-12T00:07:05.401Z,99.78
2023-11-12T00:09:33.059Z,99.80
2023-11-12T00:12:00.581Z,99.75
2023-11-12T00:14:28.215Z,100.00
2023-11-12T00:16:56.002Z,99.70
2023-11-12T00:19:23.449Z,99.42
2023-11-12T00:21:50.911Z,99.27
2023-11-12T00:24:19.016Z,98.89
2023-11-12T00:26:46.439Z,99.03
2023-11-12T00:29:13.925Z,99.12
2023-11-12T00:31:41.628Z,98.91
2023-11-12T00:34:09.285Z,99.00
2023-11-12T00:36:37.881Z,99.21
2023-11-12T00:39:05.574Z,99.78
2023-11-12T00:41:33.045Z,99.96
2023-11-12T00:44:00.652Z,99.88
2023-11-12T00:46:28.403Z,99.88
2023-11-12T00:48:56.798Z,99.66
2023-11-12T00:51:24.159Z,99.87
2023-11-12T00:53:51.852Z,99.63
2023-11-12T00:56:19.467Z,99.95
2023-11-12T00:58:47.163Z,100.00
2023-11-12T01:01:15.733Z,100.00
2023-11-12T01:03:43.420Z,100.00
2023-11-12T01:06:10.936Z,100.00
2023-11-12T01:08:39.127Z,100.00
2023-11-12T01:11:06.726Z,100.00
2023-11-12T01:13:34.549Z,100.00
2023-11-12T01:16:02.492Z,100.00
2023-11-12T01:18:33.028Z,100.00
2023-11-12T01:21:00.755Z,100.00
2023-11-12T01:23:28.243Z,100.00
2023-11-12T01:25:56.186Z,100.00
2023-11-12T01:28:23.547Z,100.00
2023-11-12T01:30:51.288Z,100.00
2023-11-12T01:33:21.173Z,100.00
2023-11-12T01:35:48.574Z,100.00
2023-11-12T01:38:15.929Z,100.00
2023-11-12T01:40:43.439Z,100.00
2023-11-12T01:43:11.486Z,100.00
2023-11-12T01:45:38.892Z,100.00
2023-11-12T01:48:07.420Z,100.00
2023-11-12T01:50:34.880Z,100.00
2023-11-12T01:53:03.273Z,100.00
2023-11-12T01:55:32.247Z,100.00
2023-11-12T01:57:59.885Z,100.00
2023-11-12T02:00:27.635Z,100.00
2023-11-12T02:02:55.971Z,100.00
2023-11-12T02:05:24.796Z,100.00
2023-11-12T02:07:53.001Z,100.00
2023-11-12T02:10:20.519Z,100.00
2023-11-12T02:12:48.916Z,100.00
2023-11-12T02:15:17.863Z,100.00
2023-11-12T02:17:48.700Z,100.00
2023-11-12T02:20:16.573Z,100.00
2023-11-12T02:22:45.233Z,100.00
2023-11-12T02:25:14.999Z,100.00
2023-11-12T02:27:42.980Z,100.00
2023-11-12T02:30:10.909Z,100.00
2023-11-12T02:32:39.303Z,100.00
2023-11-12T02:35:09.033Z,100.00
2023-11-12T02:37:38.025Z,100.00
2023-11-12T02:40:05.917Z,100.00
2023-11-12T02:42:34.763Z,100.00
2023-11-12T02:45:02.227Z,100.00
2023-11-12T02:47:29.600Z,100.00
2023-11-12T02:50:24.025Z,100.00
2023-11-12T02:52:51.656Z,100.00
2023-11-12T02:55:19.249Z,100.00
2023-11-12T02:57:48.043Z,100.00
2023-11-12T03:00:16.655Z,100.00
2023-11-12T03:02:47.964Z,100.00
2023-11-12T03:05:16.222Z,100.00
2023-11-12T03:07:43.994Z,100.00
2023-11-12T03:10:11.603Z,100.00
2023-11-12T03:12:39.914Z,100.00
2023-11-12T03:15:09.318Z,100.00
2023-11-12T03:17:38.074Z,100.00
2023-11-12T03:20:09.424Z,100.00
2023-11-12T03:22:37.964Z,100.00
2023-11-12T03:25:06.620Z,100.00
2023-11-12T03:27:34.744Z,100.00
2023-11-12T03:30:02.795Z,100.00
2023-11-12T03:32:30.288Z,100.00
2023-11-12T03:34:59.444Z,100.00
2023-11-12T03:37:26.831Z,100.00
2023-11-12T03:39:54.251Z,100.00
2023-11-12T03:42:21.863Z,100.00
2023-11-12T03:44:52.620Z,100.00
2023-11-12T03:47:20.126Z,100.00
2023-11-12T03:49:47.518Z,100.00
2023-11-12T03:52:15.959Z,100.00
2023-11-12T03:54:43.594Z,100.00
2023-11-12T03:57:11.300Z,100.00
2023-11-12T03:59:38.759Z,100.00
2023-11-12T04:02:07.191Z,100.00
2023-11-12T04:04:34.862Z,100.00
2023-11-12T04:07:02.354Z,100.00
2023-11-12T04:09:29.716Z,100.00
2023-11-12T04:11:57.161Z,100.00
2023-11-12T04:14:24.672Z,100.00
2023-11-12T04:16:52.337Z,100.00
2023-11-12T04:19:19.774Z,100.00
2023-11-12T04:21:48.705Z,100.00
2023-11-12T04:24:16.339Z,100.00
2023-11-12T04:26:44.363Z,100.00
2023-11-12T04:29:14.657Z,100.00
2023-11-12T04:31:41.934Z,100.00
2023-11-12T04:34:10.461Z,100.00
2023-11-12T04:36:37.913Z,100.00
2023-11-12T04:39:05.890Z,100.00
2023-11-12T04:41:33.413Z,100.00
2023-11-12T04:44:00.970Z,100.00
2023-11-12T04:46:29.511Z,100.00
2023-11-12T04:48:57.024Z,100.00
2023-11-12T04:51:24.610Z,100.00
2023-11-12T04:53:52.224Z,100.00
2023-11-12T04:56:19.850Z,100.00
2023-11-12T04:58:47.269Z,100.00
2023-11-12T05:01:15.109Z,100.00
2023-11-12T05:03:42.590Z,100.00
2023-11-12T05:06:10.664Z,100.00
2023-11-12T05:08:39.734Z,100.00
2023-11-12T05:11:07.284Z,100.00
2023-11-12T05:13:34.785Z,100.00
2023-11-12T05:16:02.325Z,100.00
2023-11-12T05:18:30.567Z,100.00
2023-11-12T05:20:58.186Z,100.00
2023-11-12T05:23:25.681Z,100.00
2023-11-12T05:25:54.254Z,100.00
2023-11-12T05:28:21.761Z,100.00
2023-11-12T05:30:49.719Z,100.00
2023-11-12T05:33:17.233Z,100.00
2023-11-12T05:35:44.724Z,100.00
2023-11-12T05:38:12.056Z,100.00
2023-11-12T05:40:41.225Z,100.00
2023-11-12T05:43:09.053Z,100.00
2023-11-12T05:45:36.693Z,100.00
2023-11-12T05:48:04.220Z,100.00
2023-11-12T05:50:31.803Z,100.00
2023-11-12T05:52:59.092Z,100.00
2023-11-12T05:55:26.970Z,100.00
2023-11-12T05:57:54.354Z,100.00
2023-11-12T06:00:21.939Z,100.00
2023-11-12T06:02:49.663Z,100.00
2023-11-12T06:05:17.420Z,100.00
2023-11-12T06:07:44.938Z,100.00
2023-11-12T06:10:12.858Z,100.00
2023-11-12T06:12:40.364Z,100.00
2023-11-12T06:15:08.142Z,100.00
2023-11-12T06:17:35.752Z,100.00
2023-11-12T06:20:04.939Z,100.00
2023-11-12T06:22:32.572Z,100.00
2023-11-12T06:25:00.082Z,100.00
2023-11-12T06:27:28.548Z,100.00
2023-11-12T06:29:55.991Z,100.00
2023-11-12T06:32:23.443Z,100.00
2023-11-12T06:34:50.855Z,100.00
2023-11-12T06:37:18.339Z,100.00
2023-11-12T06:39:47.606Z,100.00
2023-11-12T06:42:15.206Z,100.00
2023-11-12T06:44:42.737Z,100.00
2023-11-12T06:47:10.791Z,100.00
2023-11-12T06:49:38.213Z,100.00
2023-11-12T06:52:06.264Z,100.00
2023-11-12T06:54:33.770Z,100.00
2023-11-12T06:57:02.113Z,100.00
2023-11-12T06:59:29.648Z,100.00
2023-11-12T07:01:56.982Z,100.00
2023-11-12T07:04:24.585Z,100.00
2023-11-12T07:07:01.945Z,100.00
2023-11-12T07:09:37.368Z,100.00
2023-11-12T07:12:06.008Z,100.00
2023-11-12T07:14:33.547Z,100.00
2023-11-12T07:17:01.100Z,100.00
2023-11-12T07:19:28.689Z,100.00
2023-11-12T07:21:56.223Z,100.00
2023-11-12T07:24:23.877Z,100.00
2023-11-12T07:26:51.569Z,100.00
2023-11-12T07:29:19.318Z,100.00
2023-11-12T07:31:46.871Z,100.00
2023-11-12T07:34:14.232Z,100.00
2023-11-12T07:36:41.716Z,100.00
2023-11-12T07:39:09.524Z,100.00
2023-11-12T07:41:38.538Z,100.00
2023-11-12T07:44:07.356Z,100.00
2023-11-12T07:46:34.826Z,100.00
2023-11-12T07:49:02.410Z,100.00
2023-11-12T07:51:30.051Z,100.00
2023-11-12T07:53:57.575Z,100.00
2023-11-12T07:56:28.229Z,100.00
2023-11-12T07:58:59.042Z,100.00
2023-11-12T08:01:27.457Z,100.00
2023-11-12T08:03:55.023Z,100.00
2023-11-12T08:06:22.702Z,100.00
2023-11-12T08:08:50.192Z,100.00
2023-11-12T08:11:17.633Z,100.00
2023-11-12T08:13:45.245Z,100.00
2023-11-12T08:16:12.765Z,100.00
2023-11-12T08:18:44.771Z,100.00
2023-11-12T08:21:13.810Z,100.00
2023-11-12T08:23:41.215Z,100.00
2023-11-12T08:26:08.704Z,100.00
2023-11-12T08:28:36.219Z,100.00
2023-11-12T08:31:03.764Z,100.00
2023-11-12T08:33:31.174Z,100.00
2023-11-12T08:35:59.353Z,100.00
2023-11-12T08:38:26.830Z,100.00
2023-11-12T08:40:56.087Z,100.00
2023-11-12T08:43:25.585Z,100.00
2023-11-12T08:45:53.153Z,100.00
2023-11-12T08:48:21.954Z,100.00
2023-11-12T08:50:49.649Z,100.00
2023-11-12T08:53:16.970Z,100.00
2023-11-12T08:55:44.971Z,100.00
2023-11-12T08:58:12.544Z,100.00
2023-11-12T09:00:40.650Z,100.00
2023-11-12T09:03:08.158Z,100.00
2023-11-12T09:05:37.029Z,100.00
2023-11-12T09:08:04.792Z,100.00
2023-11-12T09:10:33.234Z,100.00
2023-11-12T09:13:01.544Z,100.00
2023-11-12T09:15:29.015Z,100.00
2023-11-12T09:17:57.008Z,100.00
2023-11-12T09:20:24.546Z,100.00
2023-11-12T09:22:52.320Z,100.00
2023-11-12T09:25:19.825Z,100.00
2023-11-12T09:27:47.262Z,100.00
2023-11-12T09:30:15.411Z,100.00
2023-11-12T09:32:43.273Z,100.00
2023-11-12T09:35:11.460Z,100.00
2023-11-12T09:37:39.060Z,100.00
2023-11-12T09:40:12.287Z,100.00
2023-11-12T09:42:42.928Z,100.00
2023-11-12T09:45:11.333Z,100.00
2023-11-12T09:48:04.582Z,100.00
2023-11-12T09:50:32.864Z,100.00
2023-11-12T09:53:04.649Z,100.00
2023-11-12T09:55:32.479Z,100.00
2023-11-12T09:58:03.053Z,100.00
2023-11-12T10:00:35.713Z,100.00
2023-11-12T10:03:07.972Z,100.00
2023-11-12T10:05:36.238Z,100.00
2023-11-12T10:08:06.158Z,100.00
2023-11-12T10:10:35.164Z,100.00
2023-11-12T10:13:06.100Z,100.00
2023-11-12T10:15:37.771Z,100.00
2023-11-12T10:18:05.849Z,100.00
2023-11-12T10:20:41.431Z,100.00
2023-11-12T10:25:53.109Z,100.00
2023-11-12T10:28:20.751Z,100.00
2023-11-12T10:30:55.360Z,100.00
2023-11-12T10:33:30.547Z,100.00
2023-11-12T10:35:57.982Z,100.00
2023-11-12T10:38:25.665Z,100.00
2023-11-12T10:41:02.289Z,100.00
2023-11-12T10:43:33.986Z,100.00
2023-11-12T10:46:05.901Z,100.00
2023-11-12T10:48:38.879Z,100.00
2023-11-12T10:51:07.904Z,100.00
2023-11-12T10:53:37.604Z,100.00
2023-11-12T10:56:07.475Z,100.00
2023-11-12T10:58:36.743Z,100.00
2023-11-12T11:01:06.405Z,100.00
2023-11-12T11:03:35.685Z,100.00
2023-11-12T11:06:04.570Z,100.00
2023-11-12T11:08:33.008Z,100.00
2023-11-12T11:11:01.596Z,100.00
2023-11-12T11:13:30.496Z,100.00
2023-11-12T11:15:59.682Z,100.00
2023-11-12T11:18:30.646Z,100.00
2023-11-12T11:21:19.443Z,100.00
2023-11-12T11:23:54.891Z,100.00
2023-11-12T11:26:42.122Z,99.38
2023-11-12T11:29:11.665Z,98.78
2023-11-12T11:31:40.158Z,98.51
2023-11-12T11:34:14.701Z,98.64
2023-11-12T11:36:58.392Z,97.54
2023-11-12T11:39:30.131Z,97.59
2023-11-12T11:41:58.140Z,97.24
2023-11-12T11:44:42.399Z,96.17
2023-11-12T11:47:21.887Z,96.55
2023-11-12T11:50:12.590Z,96.07
2023-11-12T11:52:43.850Z,95.60
2023-11-12T11:55:27.606Z,95.34
2023-11-12T11:57:58.220Z,94.88
2023-11-12T12:00:25.619Z,95.08
2023-11-12T12:02:53.001Z,95.46
2023-11-12T12:05:34.812Z,94.98
2023-11-12T12:08:05.463Z,94.90
2023-11-12T12:10:35.731Z,93.24
2023-11-12T12:13:04.482Z,92.18
2023-11-12T12:15:32.900Z,92.07
2023-11-12T12:18:01.247Z,91.72
2023-11-12T12:20:41.174Z,90.31
2023-11-12T12:23:08.756Z,89.54
2023-11-12T12:25:51.319Z,90.17
2023-11-12T12:28:21.841Z,89.10
2023-11-12T12:30:53.512Z,88.69
2023-11-12T12:33:21.152Z,88.85
2023-11-12T12:35:50.990Z,87.91
2023-11-12T12:38:18.448Z,88.34
2023-11-12T12:40:52.256Z,88.02
2023-11-12T12:43:21.259Z,88.37
2023-11-12T12:45:58.522Z,88.79
2023-11-12T12:48:26.066Z,88.19
2023-11-12T12:51:00.646Z,87.76
2023-11-12T12:53:28.956Z,88.52
2023-11-12T12:55:57.337Z,88.26
2023-11-12T12:58:41.598Z,87.82
2023-11-12T13:01:12.641Z,88.26
2023-11-12T13:03:42.650Z,88.13
2023-11-12T13:06:11.957Z,88.70
2023-11-12T13:08:42.152Z,88.32
2023-11-12T13:11:10.858Z,88.21
2023-11-12T13:13:39.494Z,88.47
2023-11-12T13:16:11.761Z,88.99
2023-11-12T13:18:42.409Z,89.72
2023-11-12T13:21:11.612Z,89.43
2023-11-12T13:23:40.055Z,89.63
2023-11-12T13:26:07.688Z,90.09
2023-11-12T13:28:37.503Z,90.98
2023-11-12T13:31:06.298Z,91.23
2023-11-12T13:33:34.956Z,91.39
2023-11-12T13:36:04.182Z,91.78
2023-11-12T13:38:37.291Z,91.42
2023-11-12T13:41:04.776Z,92.08
2023-11-12T13:43:33.799Z,91.97
2023-11-12T13:46:01.174Z,92.36
2023-11-12T13:48:29.652Z,92.66
2023-11-12T13:50:57.006Z,92.42
2023-11-12T13:53:25.961Z,92.26
2023-11-12T13:55:59.636Z,92.46
2023-11-12T13:58:28.880Z,93.31
2023-11-12T14:00:56.250Z,93.20
2023-11-12T14:03:23.580Z,93.07
2023-11-12T14:05:50.862Z,93.08
2023-11-12T14:08:18.715Z,93.26
2023-11-12T14:10:49.491Z,93.77
2023-11-12T14:13:16.681Z,93.96
2023-11-12T14:15:45.365Z,93.89
2023-11-12T14:18:12.829Z,93.46
2023-11-12T14:20:40.103Z,94.31
2023-11-12T14:23:07.935Z,93.70
2023-11-12T14:25:35.225Z,93.73
2023-11-12T14:28:04.522Z,94.10
2023-11-12T14:30:34.476Z,94.40
2023-11-12T14:33:01.781Z,93.89
2023-11-12T14:35:29.377Z,94.24
2023-11-12T14:37:58.930Z,94.60
2023-11-12T14:40:28.152Z,94.93
2023-11-12T14:42:56.509Z,94.84
2023-11-12T14:45:30.427Z,95.08
2023-11-12T14:48:01.106Z,95.61
2023-11-12T14:50:28.679Z,94.88
2023-11-12T14:52:59.129Z,95.63
2023-11-12T14:55:27.009Z,95.25
2023-11-12T14:57:58.274Z,95.93
2023-11-12T15:00:36.661Z,95.02
2023-11-12T15:03:07.615Z,95.04
2023-11-12T15:05:35.363Z,95.13
2023-11-12T15:08:02.682Z,95.56
2023-11-12T15:10:30.588Z,95.63
2023-11-12T15:12:58.826Z,95.70
2023-11-12T15:15:26.504Z,95.89
2023-11-12T15:17:55.861Z,96.15
2023-11-12T15:20:23.326Z,96.50
2023-11-12T15:22:52.274Z,96.80
2023-11-12T15:25:20.220Z,97.00
2023-11-12T15:27:50.242Z,97.31
2023-11-12T15:30:19.087Z,97.65
2023-11-12T15:32:47.201Z,97.21
2023-11-12T15:35:15.813Z,97.38
2023-11-12T15:37:44.097Z,97.16
2023-11-12T15:40:24.656Z,97.29
2023-11-12T15:42:53.495Z,97.22
2023-11-12T15:45:25.045Z,97.72
2023-11-12T15:47:53.466Z,97.29
2023-11-12T15:50:23.223Z,97.47
2023-11-12T15:52:51.833Z,97.43
2023-11-12T15:55:19.315Z,97.45
2023-11-12T15:57:47.553Z,97.67
2023-11-12T16:00:15.973Z,97.70
2023-11-12T16:02:47.928Z,97.74
2023-11-12T16:05:15.680Z,98.42
2023-11-12T16:07:44.804Z,98.38
2023-11-12T16:10:14.233Z,98.38
2023-11-12T16:12:41.951Z,98.31
2023-11-12T16:15:14.269Z,98.59
2023-11-12T16:17:43.638Z,98.63
2023-11-12T16:20:13.973Z,98.68
2023-11-12T16:22:41.844Z,99.03
2023-11-12T16:25:10.158Z,98.83
2023-11-12T16:27:38.014Z,98.55
2023-11-12T16:30:06.472Z,98.49
2023-11-12T16:32:33.803Z,98.68
2023-11-12T16:35:01.225Z,98.10
2023-11-12T16:37:28.521Z,98.00
2023-11-12T16:39:56.346Z,98.20
2023-11-12T16:42:23.967Z,98.19
2023-11-12T16:44:51.239Z,98.11
2023-11-12T16:47:24.794Z,97.95
2023-11-12T16:49:54.828Z,97.90
2023-11-12T16:52:23.173Z,97.71
2023-11-12T16:54:50.746Z,97.75
2023-11-12T16:57:17.990Z,97.81
2023-11-12T16:59:45.238Z,97.94
2023-11-12T17:02:15.316Z,97.79
2023-11-12T17:04:43.336Z,98.08
2023-11-12T17:07:12.599Z,97.85
2023-11-12T17:09:46.339Z,97.86
2023-11-12T17:12:15.273Z,97.68
2023-11-12T17:14:43.728Z,97.54
2023-11-12T17:17:11.102Z,97.06
2023-11-12T17:19:38.283Z,97.18
2023-11-12T17:22:05.684Z,97.11
2023-11-12T17:24:33.554Z,97.40
2023-11-12T17:27:00.956Z,97.57
2023-11-12T17:29:28.457Z,97.52
2023-11-12T17:31:55.730Z,97.67
2023-11-12T17:34:23.028Z,97.79
2023-11-12T17:36:50.401Z,98.11
2023-11-12T17:39:17.967Z,98.08
2023-11-12T17:41:48.675Z,98.50
2023-11-12T17:44:16.718Z,98.41
2023-11-12T17:46:46.349Z,98.33
2023-11-12T17:49:14.337Z,98.92
2023-11-12T17:51:42.896Z,98.96
2023-11-12T17:54:10.304Z,98.94
2023-11-12T17:56:38.472Z,99.11
2023-11-12T17:59:06.502Z,98.92
2023-11-12T18:01:34.672Z,98.71
2023-11-12T18:04:02.185Z,98.92
2023-11-12T18:06:29.993Z,98.88
2023-11-12T18:08:57.368Z,98.83
2023-11-12T18:11:24.700Z,98.42
2023-11-12T18:13:51.989Z,98.60
2023-11-12T18:16:22.572Z,98.31
2023-11-12T18:18:50.342Z,98.33
2023-11-12T18:21:17.849Z,98.39
2023-11-12T18:23:45.190Z,97.88
2023-11-12T18:26:14.757Z,97.97
2023-11-12T18:28:41.970Z,97.69
2023-11-12T18:31:09.281Z,97.52
2023-11-12T18:33:36.730Z,97.48
2023-11-12T18:36:04.130Z,97.62
2023-11-12T18:38:33.263Z,97.74
2023-11-12T18:41:00.577Z,97.70
2023-11-12T18:43:28.270Z,97.68
2023-11-12T18:45:57.948Z,97.81
2023-11-12T18:48:25.480Z,97.87
2023-11-12T18:50:52.979Z,97.81
2023-11-12T18:53:22.763Z,97.71
2023-11-12T18:55:50.053Z,97.90
2023-11-12T18:58:18.214Z,97.88
2023-11-12T19:00:45.923Z,98.26
2023-11-12T19:03:13.457Z,98.04
2023-11-12T19:05:41.009Z,97.90
2023-11-12T19:08:10.765Z,98.50
2023-11-12T19:10:38.749Z,98.00
2023-11-12T19:13:06.087Z,98.33
2023-11-12T19:15:33.499Z,98.74
2023-11-12T19:18:00.950Z,98.53
2023-11-12T19:20:28.222Z,98.81
2023-11-12T19:22:55.562Z,98.66
2023-11-12T19:25:23.026Z,99.03
2023-11-12T19:27:50.961Z,99.28
2023-11-12T19:30:18.195Z,99.20
2023-11-12T19:32:46.261Z,99.61
2023-11-12T19:35:14.308Z,99.54
2023-11-12T19:37:41.682Z,99.71
2023-11-12T19:40:09.929Z,99.86
2023-11-12T19:42:37.730Z,100.00
2023-11-12T19:45:08.397Z,100.00
2023-11-12T19:47:35.723Z,100.00
2023-11-12T19:50:03.059Z,100.00
2023-11-12T19:52:30.462Z,100.00
2023-11-12T19:54:57.707Z,100.00
2023-11-12T19:57:27.399Z,100.00
2023-11-12T19:59:56.931Z,100.00
2023-11-12T20:02:24.343Z,100.00
2023-11-12T20:04:52.980Z,100.00
2023-11-12T20:07:20.165Z,100.00
2023-11-12T20:09:48.164Z,100.00
2023-11-12T20:12:15.785Z,100.00
2023-11-12T20:14:43.896Z,100.00
2023-11-12T20:17:13.650Z,100.00
2023-11-12T20:19:43.116Z,100.00
2023-11-12T20:22:11.757Z,100.00
2023-11-12T20:24:39.381Z,100.00
2023-11-12T20:27:10.626Z,100.00
2023-11-12T20:29:38.196Z,100.00
2023-11-12T20:32:05.627Z,100.00
2023-11-12T20:34:32.897Z,100.00
2023-11-12T20:37:00.539Z,100.00
2023-11-12T20:39:27.886Z,100.00
2023-11-12T20:41:57.771Z,100.00
2023-11-12T20:44:25.174Z,100.00
2023-11-12T20:46:52.539Z,100.00
2023-11-12T20:49:19.984Z,100.00
2023-11-12T20:51:48.443Z,100.00
2023-11-12T20:54:19.392Z,100.00
2023-11-12T20:56:46.728Z,100.00
2023-11-12T20:59:14.422Z,100.00
2023-11-12T21:01:41.938Z,100.00
2023-11-12T21:04:12.849Z,100.00
2023-11-12T21:06:42.160Z,100.00
2023-11-12T21:09:10.151Z,100.00
2023-11-12T21:11:41.215Z,100.00
2023-11-12T21:14:13.169Z,100.00
2023-11-12T21:16:41.675Z,100.00
2023-11-12T21:19:11.183Z,100.00
2023-11-12T21:21:40.089Z,100.00
2023-11-12T21:24:09.999Z,100.00
2023-11-12T21:26:38.706Z,100.00
2023-11-12T21:29:05.998Z,100.00
2023-11-12T21:31:33.280Z,100.00
2023-11-12T21:34:01.298Z,100.00
2023-11-12T21:36:28.577Z,100.00
2023-11-12T21:38:57.122Z,100.00
2023-11-12T21:41:24.567Z,100.00
2023-11-12T21:43:54.575Z,100.00
2023-11-12T21:46:22.027Z,100.00
2023-11-12T21:48:51.668Z,100.00
2023-11-12T21:51:19.623Z,100.00
2023-11-12T21:53:49.537Z,100.00
2023-11-12T21:56:16.887Z,100.00
2023-11-12T21:58:44.071Z,100.00
2023-11-12T22:01:11.873Z,100.00
2023-11-12T22:03:39.677Z,100.00
2023-11-12T22:06:11.983Z,100.00
2023-11-12T22:08:39.382Z,100.00
2023-11-12T22:11:06.709Z,100.00
2023-11-12T22:13:34.055Z,100.00
2023-11-12T22:16:01.631Z,100.00
2023-11-12T22:18:29.724Z,100.00
2023-11-12T22:20:57.448Z,100.00
2023-11-12T22:23:24.719Z,100.00
2023-11-12T22:25:52.088Z,100.00
2023-11-12T22:28:19.448Z,100.00
2023-11-12T22:30:47.024Z,100.00
2023-11-12T22:33:14.419Z,100.00
2023-11-12T22:35:41.727Z,100.00
2023-11-12T22:38:08.962Z,100.00
2023-11-12T22:40:37.575Z,100.00
2023-11-12T22:43:04.824Z,100.00
2023-11-12T22:45:32.814Z,100.00
2023-11-12T22:48:00.173Z,100.00
2023-11-12T22:50:28.832Z,100.00
2023-11-12T22:52:56.129Z,100.00
2023-11-12T22:55:23.411Z,100.00
2023-11-12T22:57:52.247Z,100.00
2023-11-12T23:00:42.793Z,100.00
2023-11-12T23:03:15.120Z,100.00
2023-11-12T23:05:47.213Z,100.00
2023-11-12T23:08:15.405Z,100.00
2023-11-12T23:10:44.298Z,100.00
2023-11-12T23:13:13.715Z,100.00
2023-11-12T23:15:41.528Z,100.00
2023-11-12T23:18:08.880Z,100.00
2023-11-12T23:20:36.306Z,100.00
2023-11-12T23:23:04.215Z,100.00
2023-11-12T23:25:31.747Z,100.00
2023-11-12T23:28:00.245Z,100.00
2023-11-12T23:30:30.945Z,100.00
2023-11-12T23:32:58.200Z,100.00
2023-11-12T23:35:27.697Z,100.00
2023-11-12T23:37:55.371Z,100.00
2023-11-12T23:40:22.648Z,100.00
2023-11-12T23:42:49.895Z,100.00
2023-11-12T23:45:18.083Z,100.00
2023-11-12T23:47:45.350Z,100.00
2023-11-12T23:50:12.865Z,100.00
2023-11-12T23:52:40.250Z,100.00
2023-11-12T23:55:07.889Z,100.00
2023-11-12T23:57:36.249Z,100.00
